sensor_id;sensor_type;location;lat;lon;timestamp;temperature;humidity
17154;DHT22;8692;52.164;7.558;2023-02-18T00:01:50;8.80;99.90
17154;DHT22;8692;52.164;7.558;2023-02-18T00:04:19;8.80;99.90
17154;DHT22;8692;52.164;7.558;2023-02-18T00:06:47;8.80;99.90
17154;DHT22;8692;52.164;7.558;2023-02-18T00:09:15;8.80;99.90
17154;DHT22;8692;52.164;7.558;2023-02-18T00:11:45;8.80;99.90
17154;DHT22;8692;52.164;7.558;2023-02-18T00:14:16;8.80;99.90
17154;DHT22;8692;52.164;7.558;2023-02-18T00:16:45;8.80;99.90
17154;DHT22;8692;52.164;7.558;2023-02-18T00:19:15;8.80;99.90
17154;DHT22;8692;52.164;7.558;2023-02-18T00:21:46;8.80;99.90
17154;DHT22;8692;52.164;7.558;2023-02-18T00:24:15;8.80;99.90
17154;DHT22;8692;52.164;7.558;2023-02-18T00:26:49;8.80;99.90
17154;DHT22;8692;52.164;7.558;2023-02-18T00:29:18;8.80;99.90
17154;DHT22;8692;52.164;7.558;2023-02-18T00:31:47;8.80;99.90
17154;DHT22;8692;52.164;7.558;2023-02-18T00:34:16;8.80;99.90
17154;DHT22;8692;52.164;7.558;2023-02-18T00:36:44;8.80;99.90
17154;DHT22;8692;52.164;7.558;2023-02-18T00:39:15;8.80;99.90
17154;DHT22;8692;52.164;7.558;2023-02-18T00:41:47;8.80;99.90
17154;DHT22;8692;52.164;7.558;2023-02-18T00:44:18;8.80;99.90
17154;DHT22;8692;52.164;7.558;2023-02-18T00:46:46;8.80;99.90
17154;DHT22;8692;52.164;7.558;2023-02-18T00:49:15;8.80;99.90
17154;DHT22;8692;52.164;7.558;2023-02-18T00:51:47;8.80;99.90
17154;DHT22;8692;52.164;7.558;2023-02-18T00:54:15;8.80;99.90
17154;DHT22;8692;52.164;7.558;2023-02-18T00:56:47;8.80;99.90
17154;DHT22;8692;52.164;7.558;2023-02-18T00:59:15;8.80;99.90
17154;DHT22;8692;52.164;7.558;2023-02-18T01:01:46;8.80;99.90
17154;DHT22;8692;52.164;7.558;2023-02-18T01:04:16;8.90;99.90
17154;DHT22;8692;52.164;7.558;2023-02-18T01:06:47;8.90;99.90
17154;DHT22;8692;52.164;7.558;2023-02-18T01:09:17;8.90;99.90
17154;DHT22;8692;52.164;7.558;2023-02-18T01:11:46;8.90;99.90
17154;DHT22;8692;52.164;7.558;2023-02-18T01:14:17;8.90;99.90
17154;DHT22;8692;52.164;7.558;2023-02-18T01:16:45;8.90;99.90
17154;DHT22;8692;52.164;7.558;2023-02-18T01:19:16;8.90;99.90
17154;DHT22;8692;52.164;7.558;2023-02-18T01:21:44;8.90;99.90
17154;DHT22;8692;52.164;7.558;2023-02-18T01:24:14;8.90;99.90
17154;DHT22;8692;52.164;7.558;2023-02-18T01:26:42;9.00;99.90
17154;DHT22;8692;52.164;7.558;2023-02-18T01:29:12;9.00;99.90
17154;DHT22;8692;52.164;7.558;2023-02-18T01:31:40;9.00;99.90
17154;DHT22;8692;52.164;7.558;2023-02-18T01:34:08;9.00;99.90
17154;DHT22;8692;52.164;7.558;2023-02-18T01:36:39;9.00;99.90
17154;DHT22;8692;52.164;7.558;2023-02-18T01:39:09;9.00;99.90
17154;DHT22;8692;52.164;7.558;2023-02-18T01:41:37;9.10;99.90
17154;DHT22;8692;52.164;7.558;2023-02-18T01:44:12;9.10;99.90
17154;DHT22;8692;52.164;7.558;2023-02-18T01:46:41;9.10;99.90
17154;DHT22;8692;52.164;7.558;2023-02-18T01:49:14;9.10;99.90
17154;DHT22;8692;52.164;7.558;2023-02-18T01:51:46;9.00;99.90
17154;DHT22;8692;52.164;7.558;2023-02-18T01:54:18;9.10;99.90
17154;DHT22;8692;52.164;7.558;2023-02-18T01:56:51;9.10;99.90
17154;DHT22;8692;52.164;7.558;2023-02-18T01:59:25;9.10;99.90
17154;DHT22;8692;52.164;7.558;2023-02-18T02:01:57;9.10;99.90
17154;DHT22;8692;52.164;7.558;2023-02-18T02:04:28;9.10;99.90
17154;DHT22;8692;52.164;7.558;2023-02-18T02:06:57;9.10;99.90
17154;DHT22;8692;52.164;7.558;2023-02-18T02:09:28;9.10;99.90
17154;DHT22;8692;52.164;7.558;2023-02-18T02:12:24;9.10;99.90
17154;DHT22;8692;52.164;7.558;2023-02-18T02:15:08;9.10;99.90
17154;DHT22;8692;52.164;7.558;2023-02-18T02:17:48;9.20;99.90
17154;DHT22;8692;52.164;7.558;2023-02-18T02:27:07;9.20;99.90
17154;DHT22;8692;52.164;7.558;2023-02-18T02:33:23;9.30;99.90
17154;DHT22;8692;52.164;7.558;2023-02-18T02:36:02;9.30;99.90
17154;DHT22;8692;52.164;7.558;2023-02-18T02:38:37;9.40;99.90
17154;DHT22;8692;52.164;7.558;2023-02-18T02:41:20;9.40;99.90
17154;DHT22;8692;52.164;7.558;2023-02-18T02:43:55;9.40;99.90
17154;DHT22;8692;52.164;7.558;2023-02-18T02:46:36;9.50;99.90
17154;DHT22;8692;52.164;7.558;2023-02-18T02:49:11;9.50;99.90
17154;DHT22;8692;52.164;7.558;2023-02-18T02:51:45;9.50;99.90
17154;DHT22;8692;52.164;7.558;2023-02-18T02:54:16;9.50;99.90
17154;DHT22;8692;52.164;7.558;2023-02-18T02:56:47;9.60;99.90
17154;DHT22;8692;52.164;7.558;2023-02-18T02:59:23;9.60;99.90
17154;DHT22;8692;52.164;7.558;2023-02-18T03:02:07;9.60;99.90
17154;DHT22;8692;52.164;7.558;2023-02-18T03:05:00;9.60;99.90
17154;DHT22;8692;52.164;7.558;2023-02-18T03:08:01;9.60;99.90
17154;DHT22;8692;52.164;7.558;2023-02-18T03:10:47;9.60;99.90
17154;DHT22;8692;52.164;7.558;2023-02-18T03:13:28;9.60;99.90
17154;DHT22;8692;52.164;7.558;2023-02-18T03:16:02;9.60;99.90
17154;DHT22;8692;52.164;7.558;2023-02-18T03:18:37;9.60;99.90
17154;DHT22;8692;52.164;7.558;2023-02-18T03:21:09;9.60;99.90
17154;DHT22;8692;52.164;7.558;2023-02-18T03:23:43;9.70;99.90
17154;DHT22;8692;52.164;7.558;2023-02-18T03:26:14;9.70;99.90
17154;DHT22;8692;52.164;7.558;2023-02-18T03:28:44;9.70;99.90
17154;DHT22;8692;52.164;7.558;2023-02-18T03:31:18;9.70;99.90
17154;DHT22;8692;52.164;7.558;2023-02-18T03:33:53;9.70;99.90
17154;DHT22;8692;52.164;7.558;2023-02-18T03:36:23;9.80;99.90
17154;DHT22;8692;52.164;7.558;2023-02-18T03:38:58;9.80;99.90
17154;DHT22;8692;52.164;7.558;2023-02-18T03:41:27;9.80;99.90
17154;DHT22;8692;52.164;7.558;2023-02-18T03:43:59;9.80;99.90
17154;DHT22;8692;52.164;7.558;2023-02-18T03:46:29;9.80;99.90
17154;DHT22;8692;52.164;7.558;2023-02-18T03:49:00;9.80;99.90
17154;DHT22;8692;52.164;7.558;2023-02-18T03:51:29;9.80;99.90
17154;DHT22;8692;52.164;7.558;2023-02-18T03:54:00;9.80;99.90
17154;DHT22;8692;52.164;7.558;2023-02-18T03:56:29;9.80;99.90
17154;DHT22;8692;52.164;7.558;2023-02-18T03:58:57;9.80;99.90
17154;DHT22;8692;52.164;7.558;2023-02-18T04:01:25;9.80;99.90
17154;DHT22;8692;52.164;7.558;2023-02-18T04:03:53;9.80;99.90
17154;DHT22;8692;52.164;7.558;2023-02-18T04:06:22;9.80;99.90
17154;DHT22;8692;52.164;7.558;2023-02-18T04:08:50;9.80;99.90
17154;DHT22;8692;52.164;7.558;2023-02-18T04:11:20;9.80;99.90
17154;DHT22;8692;52.164;7.558;2023-02-18T04:13:50;9.80;99.90
17154;DHT22;8692;52.164;7.558;2023-02-18T04:16:18;9.80;99.90
17154;DHT22;8692;52.164;7.558;2023-02-18T04:18:49;9.80;99.90
17154;DHT22;8692;52.164;7.558;2023-02-18T04:21:17;9.80;99.90
17154;DHT22;8692;52.164;7.558;2023-02-18T04:23:45;9.80;99.90
17154;DHT22;8692;52.164;7.558;2023-02-18T04:26:13;9.80;99.90
17154;DHT22;8692;52.164;7.558;2023-02-18T04:28:43;9.80;99.90
17154;DHT22;8692;52.164;7.558;2023-02-18T04:31:11;9.80;99.90
17154;DHT22;8692;52.164;7.558;2023-02-18T04:33:41;9.80;99.90
17154;DHT22;8692;52.164;7.558;2023-02-18T04:36:12;9.80;99.90
17154;DHT22;8692;52.164;7.558;2023-02-18T04:38:40;9.80;99.90
17154;DHT22;8692;52.164;7.558;2023-02-18T04:41:09;9.80;99.90
17154;DHT22;8692;52.164;7.558;2023-02-18T04:43:41;9.80;99.90
17154;DHT22;8692;52.164;7.558;2023-02-18T04:46:12;9.80;99.90
17154;DHT22;8692;52.164;7.558;2023-02-18T04:48:44;9.80;99.90
17154;DHT22;8692;52.164;7.558;2023-02-18T04:51:12;9.80;99.90
17154;DHT22;8692;52.164;7.558;2023-02-18T04:53:42;9.80;99.90
17154;DHT22;8692;52.164;7.558;2023-02-18T04:56:14;9.80;99.90
17154;DHT22;8692;52.164;7.558;2023-02-18T04:58:44;9.80;99.90
17154;DHT22;8692;52.164;7.558;2023-02-18T05:01:16;9.80;99.90
17154;DHT22;8692;52.164;7.558;2023-02-18T05:03:47;9.80;99.90
17154;DHT22;8692;52.164;7.558;2023-02-18T05:06:15;9.80;99.90
17154;DHT22;8692;52.164;7.558;2023-02-18T05:08:45;9.80;99.90
17154;DHT22;8692;52.164;7.558;2023-02-18T05:11:16;9.80;99.90
17154;DHT22;8692;52.164;7.558;2023-02-18T05:13:44;9.90;99.90
17154;DHT22;8692;52.164;7.558;2023-02-18T05:16:12;9.90;99.90
17154;DHT22;8692;52.164;7.558;2023-02-18T05:18:42;9.90;99.90
17154;DHT22;8692;52.164;7.558;2023-02-18T05:21:10;9.90;99.90
17154;DHT22;8692;52.164;7.558;2023-02-18T05:23:38;9.90;99.90
17154;DHT22;8692;52.164;7.558;2023-02-18T05:26:06;9.90;99.90
17154;DHT22;8692;52.164;7.558;2023-02-18T05:28:34;9.90;99.90
17154;DHT22;8692;52.164;7.558;2023-02-18T05:31:03;9.90;99.90
17154;DHT22;8692;52.164;7.558;2023-02-18T05:33:31;10.00;99.90
17154;DHT22;8692;52.164;7.558;2023-02-18T05:36:03;10.00;99.90
17154;DHT22;8692;52.164;7.558;2023-02-18T05:38:34;10.00;99.90
17154;DHT22;8692;52.164;7.558;2023-02-18T05:41:02;10.00;99.90
17154;DHT22;8692;52.164;7.558;2023-02-18T05:43:30;10.00;99.90
17154;DHT22;8692;52.164;7.558;2023-02-18T05:46:20;10.00;99.90
17154;DHT22;8692;52.164;7.558;2023-02-18T05:48:49;10.00;99.90
17154;DHT22;8692;52.164;7.558;2023-02-18T05:51:20;10.00;99.90
17154;DHT22;8692;52.164;7.558;2023-02-18T05:53:49;10.00;99.90
17154;DHT22;8692;52.164;7.558;2023-02-18T05:56:17;10.00;99.90
17154;DHT22;8692;52.164;7.558;2023-02-18T05:58:45;10.00;99.90
17154;DHT22;8692;52.164;7.558;2023-02-18T06:01:13;10.00;99.90
17154;DHT22;8692;52.164;7.558;2023-02-18T06:03:44;10.00;99.90
17154;DHT22;8692;52.164;7.558;2023-02-18T06:06:12;10.00;99.90
17154;DHT22;8692;52.164;7.558;2023-02-18T06:08:41;10.00;99.90
17154;DHT22;8692;52.164;7.558;2023-02-18T06:11:09;10.00;99.90
17154;DHT22;8692;52.164;7.558;2023-02-18T06:13:38;10.00;99.90
17154;DHT22;8692;52.164;7.558;2023-02-18T06:16:06;10.10;99.90
17154;DHT22;8692;52.164;7.558;2023-02-18T06:18:35;10.10;99.90
17154;DHT22;8692;52.164;7.558;2023-02-18T06:21:03;10.00;99.90
17154;DHT22;8692;52.164;7.558;2023-02-18T06:23:33;10.10;99.90
17154;DHT22;8692;52.164;7.558;2023-02-18T06:26:03;10.10;99.90
17154;DHT22;8692;52.164;7.558;2023-02-18T06:28:32;10.10;99.90
17154;DHT22;8692;52.164;7.558;2023-02-18T06:31:02;10.10;99.90
17154;DHT22;8692;52.164;7.558;2023-02-18T06:33:31;10.10;99.90
17154;DHT22;8692;52.164;7.558;2023-02-18T06:36:00;10.10;99.90
17154;DHT22;8692;52.164;7.558;2023-02-18T06:38:29;10.10;99.90
17154;DHT22;8692;52.164;7.558;2023-02-18T06:40:57;10.10;99.90
17154;DHT22;8692;52.164;7.558;2023-02-18T06:43:27;10.10;99.90
17154;DHT22;8692;52.164;7.558;2023-02-18T06:45:57;10.10;99.90
17154;DHT22;8692;52.164;7.558;2023-02-18T06:48:28;10.10;99.90
17154;DHT22;8692;52.164;7.558;2023-02-18T06:50:56;10.10;99.90
17154;DHT22;8692;52.164;7.558;2023-02-18T06:53:27;10.10;99.90
17154;DHT22;8692;52.164;7.558;2023-02-18T06:55:55;10.10;99.90
17154;DHT22;8692;52.164;7.558;2023-02-18T06:58:27;10.10;99.90
17154;DHT22;8692;52.164;7.558;2023-02-18T07:00:55;10.10;99.90
17154;DHT22;8692;52.164;7.558;2023-02-18T07:03:27;10.10;99.90
17154;DHT22;8692;52.164;7.558;2023-02-18T07:05:55;10.10;99.90
17154;DHT22;8692;52.164;7.558;2023-02-18T07:08:26;10.10;99.90
17154;DHT22;8692;52.164;7.558;2023-02-18T07:10:56;10.10;99.90
17154;DHT22;8692;52.164;7.558;2023-02-18T07:13:24;10.20;99.90
17154;DHT22;8692;52.164;7.558;2023-02-18T07:15:56;10.20;99.90
17154;DHT22;8692;52.164;7.558;2023-02-18T07:18:24;10.20;99.90
17154;DHT22;8692;52.164;7.558;2023-02-18T07:20:52;10.20;99.90
17154;DHT22;8692;52.164;7.558;2023-02-18T07:23:20;10.10;99.90
17154;DHT22;8692;52.164;7.558;2023-02-18T07:25:48;10.10;99.90
17154;DHT22;8692;52.164;7.558;2023-02-18T07:28:16;10.10;99.90
17154;DHT22;8692;52.164;7.558;2023-02-18T07:30:45;10.20;99.90
17154;DHT22;8692;52.164;7.558;2023-02-18T07:33:17;10.10;99.90
17154;DHT22;8692;52.164;7.558;2023-02-18T07:35:52;10.10;99.90
17154;DHT22;8692;52.164;7.558;2023-02-18T07:38:24;10.10;99.90
17154;DHT22;8692;52.164;7.558;2023-02-18T07:40:56;10.10;99.90
17154;DHT22;8692;52.164;7.558;2023-02-18T07:43:25;10.10;99.90
17154;DHT22;8692;52.164;7.558;2023-02-18T07:45:53;10.10;99.90
17154;DHT22;8692;52.164;7.558;2023-02-18T07:48:26;10.20;99.90
17154;DHT22;8692;52.164;7.558;2023-02-18T07:50:54;10.10;99.90
17154;DHT22;8692;52.164;7.558;2023-02-18T07:53:24;10.20;99.90
17154;DHT22;8692;52.164;7.558;2023-02-18T07:55:52;10.10;99.90
17154;DHT22;8692;52.164;7.558;2023-02-18T07:58:22;10.20;99.90
17154;DHT22;8692;52.164;7.558;2023-02-18T08:00:51;10.10;99.90
17154;DHT22;8692;52.164;7.558;2023-02-18T08:03:24;10.10;99.90
17154;DHT22;8692;52.164;7.558;2023-02-18T08:05:56;10.20;99.90
17154;DHT22;8692;52.164;7.558;2023-02-18T08:08:27;10.20;99.90
17154;DHT22;8692;52.164;7.558;2023-02-18T08:11:00;10.20;99.90
17154;DHT22;8692;52.164;7.558;2023-02-18T08:13:46;10.20;99.90
17154;DHT22;8692;52.164;7.558;2023-02-18T08:16:15;10.20;99.90
17154;DHT22;8692;52.164;7.558;2023-02-18T08:18:47;10.20;99.90
17154;DHT22;8692;52.164;7.558;2023-02-18T08:21:20;10.20;99.90
17154;DHT22;8692;52.164;7.558;2023-02-18T08:23:49;10.20;99.90
17154;DHT22;8692;52.164;7.558;2023-02-18T08:26:18;10.20;99.90
17154;DHT22;8692;52.164;7.558;2023-02-18T08:28:47;10.20;99.90
17154;DHT22;8692;52.164;7.558;2023-02-18T08:31:19;10.20;99.90
17154;DHT22;8692;52.164;7.558;2023-02-18T08:33:51;10.20;99.90
17154;DHT22;8692;52.164;7.558;2023-02-18T08:36:21;10.20;99.90
17154;DHT22;8692;52.164;7.558;2023-02-18T08:38:52;10.20;99.90
17154;DHT22;8692;52.164;7.558;2023-02-18T08:41:23;10.20;99.90
17154;DHT22;8692;52.164;7.558;2023-02-18T08:43:53;10.20;99.90
17154;DHT22;8692;52.164;7.558;2023-02-18T08:46:22;10.20;99.90
17154;DHT22;8692;52.164;7.558;2023-02-18T08:49:01;10.20;99.90
17154;DHT22;8692;52.164;7.558;2023-02-18T08:51:33;10.10;99.90
17154;DHT22;8692;52.164;7.558;2023-02-18T08:54:04;10.20;99.90
17154;DHT22;8692;52.164;7.558;2023-02-18T08:56:35;10.20;99.90
17154;DHT22;8692;52.164;7.558;2023-02-18T08:59:04;10.20;99.90
17154;DHT22;8692;52.164;7.558;2023-02-18T09:01:32;10.20;99.90
17154;DHT22;8692;52.164;7.558;2023-02-18T09:04:03;10.20;99.90
17154;DHT22;8692;52.164;7.558;2023-02-18T09:06:36;10.20;99.90
17154;DHT22;8692;52.164;7.558;2023-02-18T09:09:04;10.20;99.90
17154;DHT22;8692;52.164;7.558;2023-02-18T09:11:35;10.20;99.90
17154;DHT22;8692;52.164;7.558;2023-02-18T09:14:03;10.20;99.90
17154;DHT22;8692;52.164;7.558;2023-02-18T09:16:31;10.20;99.90
17154;DHT22;8692;52.164;7.558;2023-02-18T09:19:00;10.20;99.90
17154;DHT22;8692;52.164;7.558;2023-02-18T09:21:28;10.20;99.90
17154;DHT22;8692;52.164;7.558;2023-02-18T09:24:00;10.20;99.90
17154;DHT22;8692;52.164;7.558;2023-02-18T09:26:28;10.20;99.90
17154;DHT22;8692;52.164;7.558;2023-02-18T09:28:57;10.20;99.90
17154;DHT22;8692;52.164;7.558;2023-02-18T09:31:26;10.20;99.90
17154;DHT22;8692;52.164;7.558;2023-02-18T09:33:57;10.20;99.90
17154;DHT22;8692;52.164;7.558;2023-02-18T09:36:26;10.20;99.90
17154;DHT22;8692;52.164;7.558;2023-02-18T09:38:58;10.20;99.90
17154;DHT22;8692;52.164;7.558;2023-02-18T09:41:33;10.20;99.90
17154;DHT22;8692;52.164;7.558;2023-02-18T09:44:11;10.20;99.90
17154;DHT22;8692;52.164;7.558;2023-02-18T09:46:45;10.20;99.90
17154;DHT22;8692;52.164;7.558;2023-02-18T09:49:19;10.20;99.90
17154;DHT22;8692;52.164;7.558;2023-02-18T09:51:49;10.20;99.90
17154;DHT22;8692;52.164;7.558;2023-02-18T09:54:19;10.20;99.90
17154;DHT22;8692;52.164;7.558;2023-02-18T09:56:52;10.20;99.90
17154;DHT22;8692;52.164;7.558;2023-02-18T09:59:24;10.20;99.90
17154;DHT22;8692;52.164;7.558;2023-02-18T10:01:53;10.20;99.90
17154;DHT22;8692;52.164;7.558;2023-02-18T10:04:27;10.20;99.90
17154;DHT22;8692;52.164;7.558;2023-02-18T10:06:57;10.20;99.90
17154;DHT22;8692;52.164;7.558;2023-02-18T10:09:30;10.20;99.90
17154;DHT22;8692;52.164;7.558;2023-02-18T10:12:12;10.10;99.90
17154;DHT22;8692;52.164;7.558;2023-02-18T10:14:42;10.10;99.90
17154;DHT22;8692;52.164;7.558;2023-02-18T10:17:13;10.10;99.90
17154;DHT22;8692;52.164;7.558;2023-02-18T10:19:47;10.10;99.90
17154;DHT22;8692;52.164;7.558;2023-02-18T10:22:16;10.00;99.90
17154;DHT22;8692;52.164;7.558;2023-02-18T10:24:47;10.00;99.90
17154;DHT22;8692;52.164;7.558;2023-02-18T10:27:22;10.00;99.90
17154;DHT22;8692;52.164;7.558;2023-02-18T10:29:54;10.00;99.90
17154;DHT22;8692;52.164;7.558;2023-02-18T10:32:26;9.90;99.90
17154;DHT22;8692;52.164;7.558;2023-02-18T10:35:01;9.90;99.90
17154;DHT22;8692;52.164;7.558;2023-02-18T10:37:46;9.90;99.90
17154;DHT22;8692;52.164;7.558;2023-02-18T10:40:20;9.90;99.90
17154;DHT22;8692;52.164;7.558;2023-02-18T10:43:02;9.80;99.90
17154;DHT22;8692;52.164;7.558;2023-02-18T10:45:37;9.80;99.90
17154;DHT22;8692;52.164;7.558;2023-02-18T10:48:22;9.80;99.90
17154;DHT22;8692;52.164;7.558;2023-02-18T10:50:51;9.80;99.90
17154;DHT22;8692;52.164;7.558;2023-02-18T10:53:30;9.80;99.90
17154;DHT22;8692;52.164;7.558;2023-02-18T10:56:00;9.80;99.90
17154;DHT22;8692;52.164;7.558;2023-02-18T10:58:34;9.80;99.90
17154;DHT22;8692;52.164;7.558;2023-02-18T11:01:04;9.80;99.90
17154;DHT22;8692;52.164;7.558;2023-02-18T11:03:40;9.80;99.90
17154;DHT22;8692;52.164;7.558;2023-02-18T11:06:20;9.80;99.90
17154;DHT22;8692;52.164;7.558;2023-02-18T11:08:48;9.70;99.90
17154;DHT22;8692;52.164;7.558;2023-02-18T11:11:23;9.80;99.90
17154;DHT22;8692;52.164;7.558;2023-02-18T11:13:54;9.70;99.90
17154;DHT22;8692;52.164;7.558;2023-02-18T11:16:24;9.70;99.90
17154;DHT22;8692;52.164;7.558;2023-02-18T11:19:02;9.80;99.90
17154;DHT22;8692;52.164;7.558;2023-02-18T11:21:35;9.70;99.90
17154;DHT22;8692;52.164;7.558;2023-02-18T11:24:07;9.70;99.90
17154;DHT22;8692;52.164;7.558;2023-02-18T11:26:38;9.70;99.90
17154;DHT22;8692;52.164;7.558;2023-02-18T11:29:17;9.70;99.90
17154;DHT22;8692;52.164;7.558;2023-02-18T11:31:51;9.70;99.90
17154;DHT22;8692;52.164;7.558;2023-02-18T11:34:26;9.70;99.90
17154;DHT22;8692;52.164;7.558;2023-02-18T11:37:09;9.70;99.90
17154;DHT22;8692;52.164;7.558;2023-02-18T11:39:43;9.80;99.90
17154;DHT22;8692;52.164;7.558;2023-02-18T11:42:13;9.80;99.90
17154;DHT22;8692;52.164;7.558;2023-02-18T11:44:49;9.80;99.90
17154;DHT22;8692;52.164;7.558;2023-02-18T11:47:23;9.80;99.90
17154;DHT22;8692;52.164;7.558;2023-02-18T11:50:13;9.80;99.90
17154;DHT22;8692;52.164;7.558;2023-02-18T11:52:47;9.80;99.90
17154;DHT22;8692;52.164;7.558;2023-02-18T11:55:17;9.80;99.90
17154;DHT22;8692;52.164;7.558;2023-02-18T11:57:53;9.80;99.90
17154;DHT22;8692;52.164;7.558;2023-02-18T12:00:36;9.80;99.90
17154;DHT22;8692;52.164;7.558;2023-02-18T12:03:16;9.80;99.90
17154;DHT22;8692;52.164;7.558;2023-02-18T12:05:49;9.80;99.90
17154;DHT22;8692;52.164;7.558;2023-02-18T12:08:21;9.80;99.90
17154;DHT22;8692;52.164;7.558;2023-02-18T12:10:53;9.80;99.90
17154;DHT22;8692;52.164;7.558;2023-02-18T12:13:26;9.90;99.90
17154;DHT22;8692;52.164;7.558;2023-02-18T12:16:06;9.90;99.90
17154;DHT22;8692;52.164;7.558;2023-02-18T12:18:51;9.90;99.90
17154;DHT22;8692;52.164;7.558;2023-02-18T12:21:36;10.00;99.90
17154;DHT22;8692;52.164;7.558;2023-02-18T12:24:16;10.00;99.90
17154;DHT22;8692;52.164;7.558;2023-02-18T12:26:52;10.00;99.90
17154;DHT22;8692;52.164;7.558;2023-02-18T12:29:42;10.00;99.90
17154;DHT22;8692;52.164;7.558;2023-02-18T12:32:30;10.00;99.90
17154;DHT22;8692;52.164;7.558;2023-02-18T12:35:32;10.00;99.90
17154;DHT22;8692;52.164;7.558;2023-02-18T12:38:27;10.00;99.90
17154;DHT22;8692;52.164;7.558;2023-02-18T12:41:16;9.90;99.90
17154;DHT22;8692;52.164;7.558;2023-02-18T12:43:54;10.00;99.90
17154;DHT22;8692;52.164;7.558;2023-02-18T12:46:41;9.90;99.90
17154;DHT22;8692;52.164;7.558;2023-02-18T12:52:31;10.00;99.90
17154;DHT22;8692;52.164;7.558;2023-02-18T12:55:28;10.00;99.90
17154;DHT22;8692;52.164;7.558;2023-02-18T12:58:11;10.00;99.90
17154;DHT22;8692;52.164;7.558;2023-02-18T13:00:57;10.00;99.90
17154;DHT22;8692;52.164;7.558;2023-02-18T13:04:11;10.00;99.90
17154;DHT22;8692;52.164;7.558;2023-02-18T13:07:02;10.00;99.90
17154;DHT22;8692;52.164;7.558;2023-02-18T13:09:46;10.10;99.90
17154;DHT22;8692;52.164;7.558;2023-02-18T13:12:27;10.10;99.90
17154;DHT22;8692;52.164;7.558;2023-02-18T13:15:00;10.10;99.90
17154;DHT22;8692;52.164;7.558;2023-02-18T13:17:34;10.20;99.90
17154;DHT22;8692;52.164;7.558;2023-02-18T13:20:13;10.20;99.90
17154;DHT22;8692;52.164;7.558;2023-02-18T13:22:46;10.30;99.90
17154;DHT22;8692;52.164;7.558;2023-02-18T13:25:17;10.20;99.90
17154;DHT22;8692;52.164;7.558;2023-02-18T13:27:53;10.20;99.90
17154;DHT22;8692;52.164;7.558;2023-02-18T13:30:30;10.20;99.90
17154;DHT22;8692;52.164;7.558;2023-02-18T13:33:12;10.20;99.90
17154;DHT22;8692;52.164;7.558;2023-02-18T13:35:46;10.20;99.90
17154;DHT22;8692;52.164;7.558;2023-02-18T13:38:30;10.20;99.90
17154;DHT22;8692;52.164;7.558;2023-02-18T13:41:04;10.20;99.90
17154;DHT22;8692;52.164;7.558;2023-02-18T13:43:35;10.20;99.90
17154;DHT22;8692;52.164;7.558;2023-02-18T13:46:08;10.30;99.90
17154;DHT22;8692;52.164;7.558;2023-02-18T13:48:43;10.30;99.90
17154;DHT22;8692;52.164;7.558;2023-02-18T13:51:14;10.30;99.90
17154;DHT22;8692;52.164;7.558;2023-02-18T13:53:50;10.30;99.90
17154;DHT22;8692;52.164;7.558;2023-02-18T13:56:26;10.30;99.90
17154;DHT22;8692;52.164;7.558;2023-02-18T13:59:00;10.40;99.90
17154;DHT22;8692;52.164;7.558;2023-02-18T14:01:41;10.40;99.90
17154;DHT22;8692;52.164;7.558;2023-02-18T14:07:36;10.40;99.90
17154;DHT22;8692;52.164;7.558;2023-02-18T14:10:25;10.40;99.90
17154;DHT22;8692;52.164;7.558;2023-02-18T14:13:22;10.40;99.90
17154;DHT22;8692;52.164;7.558;2023-02-18T14:15:57;10.40;99.90
17154;DHT22;8692;52.164;7.558;2023-02-18T14:18:32;10.50;99.90
17154;DHT22;8692;52.164;7.558;2023-02-18T14:21:16;10.40;99.90
17154;DHT22;8692;52.164;7.558;2023-02-18T14:24:03;10.50;99.90
17154;DHT22;8692;52.164;7.558;2023-02-18T14:26:41;10.40;99.90
17154;DHT22;8692;52.164;7.558;2023-02-18T14:29:25;10.40;99.90
17154;DHT22;8692;52.164;7.558;2023-02-18T14:31:58;10.50;99.90
17154;DHT22;8692;52.164;7.558;2023-02-18T14:34:57;10.50;99.90
17154;DHT22;8692;52.164;7.558;2023-02-18T14:37:53;10.50;99.90
17154;DHT22;8692;52.164;7.558;2023-02-18T14:40:50;10.50;99.90
17154;DHT22;8692;52.164;7.558;2023-02-18T14:43:32;10.50;99.90
17154;DHT22;8692;52.164;7.558;2023-02-18T14:46:18;10.50;99.90
17154;DHT22;8692;52.164;7.558;2023-02-18T14:49:07;10.50;99.90
17154;DHT22;8692;52.164;7.558;2023-02-18T14:51:44;10.50;99.90
17154;DHT22;8692;52.164;7.558;2023-02-18T14:54:16;10.50;99.90
17154;DHT22;8692;52.164;7.558;2023-02-18T14:56:53;10.50;99.90
17154;DHT22;8692;52.164;7.558;2023-02-18T14:59:28;10.60;99.90
17154;DHT22;8692;52.164;7.558;2023-02-18T15:01:59;10.60;99.90
17154;DHT22;8692;52.164;7.558;2023-02-18T15:04:28;10.60;99.90
17154;DHT22;8692;52.164;7.558;2023-02-18T15:07:01;10.60;99.90
17154;DHT22;8692;52.164;7.558;2023-02-18T15:09:29;10.60;99.90
17154;DHT22;8692;52.164;7.558;2023-02-18T15:11:59;10.60;99.90
17154;DHT22;8692;52.164;7.558;2023-02-18T15:14:34;10.60;99.90
17154;DHT22;8692;52.164;7.558;2023-02-18T15:17:20;10.60;99.90
17154;DHT22;8692;52.164;7.558;2023-02-18T15:19:53;10.60;99.90
17154;DHT22;8692;52.164;7.558;2023-02-18T15:22:24;10.60;99.90
17154;DHT22;8692;52.164;7.558;2023-02-18T15:24:56;10.60;99.90
17154;DHT22;8692;52.164;7.558;2023-02-18T15:27:27;10.60;99.90
17154;DHT22;8692;52.164;7.558;2023-02-18T15:30:03;10.60;99.90
17154;DHT22;8692;52.164;7.558;2023-02-18T15:32:32;10.60;99.90
17154;DHT22;8692;52.164;7.558;2023-02-18T15:35:01;10.60;99.90
17154;DHT22;8692;52.164;7.558;2023-02-18T15:37:30;10.60;99.90
17154;DHT22;8692;52.164;7.558;2023-02-18T15:40:00;10.60;99.90
17154;DHT22;8692;52.164;7.558;2023-02-18T15:42:35;10.50;99.90
17154;DHT22;8692;52.164;7.558;2023-02-18T15:45:16;10.50;99.90
17154;DHT22;8692;52.164;7.558;2023-02-18T15:47:47;10.50;99.90
17154;DHT22;8692;52.164;7.558;2023-02-18T15:50:18;10.50;99.90
17154;DHT22;8692;52.164;7.558;2023-02-18T15:52:51;10.50;99.90
17154;DHT22;8692;52.164;7.558;2023-02-18T15:55:25;10.50;99.90
17154;DHT22;8692;52.164;7.558;2023-02-18T15:57:56;10.50;99.90
17154;DHT22;8692;52.164;7.558;2023-02-18T16:00:34;10.50;99.90
17154;DHT22;8692;52.164;7.558;2023-02-18T16:03:11;10.50;99.90
17154;DHT22;8692;52.164;7.558;2023-02-18T16:05:42;10.50;99.90
17154;DHT22;8692;52.164;7.558;2023-02-18T16:08:14;10.50;99.90
17154;DHT22;8692;52.164;7.558;2023-02-18T16:10:45;10.50;99.90
17154;DHT22;8692;52.164;7.558;2023-02-18T16:13:17;10.50;99.90
17154;DHT22;8692;52.164;7.558;2023-02-18T16:15:50;10.50;99.90
17154;DHT22;8692;52.164;7.558;2023-02-18T16:18:29;10.50;99.90
17154;DHT22;8692;52.164;7.558;2023-02-18T16:21:00;10.50;99.90
17154;DHT22;8692;52.164;7.558;2023-02-18T16:23:32;10.50;99.90
17154;DHT22;8692;52.164;7.558;2023-02-18T16:26:10;10.50;99.90
17154;DHT22;8692;52.164;7.558;2023-02-18T16:28:41;10.50;99.90
17154;DHT22;8692;52.164;7.558;2023-02-18T16:31:13;10.50;99.90
17154;DHT22;8692;52.164;7.558;2023-02-18T16:33:45;10.50;99.90
17154;DHT22;8692;52.164;7.558;2023-02-18T16:36:15;10.50;99.90
17154;DHT22;8692;52.164;7.558;2023-02-18T16:38:44;10.50;99.90
17154;DHT22;8692;52.164;7.558;2023-02-18T16:41:13;10.40;99.90
17154;DHT22;8692;52.164;7.558;2023-02-18T16:43:41;10.40;99.90
17154;DHT22;8692;52.164;7.558;2023-02-18T16:46:15;10.40;99.90
17154;DHT22;8692;52.164;7.558;2023-02-18T16:48:48;10.40;99.90